sensor_id;sensor_type;location;lat;lon;timestamp;temperature;humidity
19974;DHT22;10148;47.694;9.442;2022-08-19T00:01:39;17.40;99.90
19974;DHT22;10148;47.694;9.442;2022-08-19T00:04:11;17.40;99.90
19974;DHT22;10148;47.694;9.442;2022-08-19T00:06:38;17.50;99.90
19974;DHT22;10148;47.694;9.442;2022-08-19T00:09:06;17.50;99.90
19974;DHT22;10148;47.694;9.442;2022-08-19T00:11:32;17.50;99.90
19974;DHT22;10148;47.694;9.442;2022-08-19T00:14:00;17.40;99.90
19974;DHT22;10148;47.694;9.442;2022-08-19T00:16:26;17.40;99.90
19974;DHT22;10148;47.694;9.442;2022-08-19T00:18:53;17.40;99.90
19974;DHT22;10148;47.694;9.442;2022-08-19T00:21:20;17.40;99.90
19974;DHT22;10148;47.694;9.442;2022-08-19T00:23:46;17.40;99.90
19974;DHT22;10148;47.694;9.442;2022-08-19T00:26:11;17.40;99.90
19974;DHT22;10148;47.694;9.442;2022-08-19T00:28:37;17.30;99.90
19974;DHT22;10148;47.694;9.442;2022-08-19T00:31:06;17.40;99.90
19974;DHT22;10148;47.694;9.442;2022-08-19T00:33:32;17.30;99.90
19974;DHT22;10148;47.694;9.442;2022-08-19T00:35:59;17.30;99.90
19974;DHT22;10148;47.694;9.442;2022-08-19T00:38:24;17.30;99.90
19974;DHT22;10148;47.694;9.442;2022-08-19T00:40:50;17.30;99.90
19974;DHT22;10148;47.694;9.442;2022-08-19T00:43:20;17.30;99.90
19974;DHT22;10148;47.694;9.442;2022-08-19T00:45:46;17.30;99.90
19974;DHT22;10148;47.694;9.442;2022-08-19T00:48:13;17.30;99.90
19974;DHT22;10148;47.694;9.442;2022-08-19T00:50:40;17.20;99.90
19974;DHT22;10148;47.694;9.442;2022-08-19T00:53:12;17.20;99.90
19974;DHT22;10148;47.694;9.442;2022-08-19T00:55:40;17.20;99.90
19974;DHT22;10148;47.694;9.442;2022-08-19T00:58:11;17.20;99.90
19974;DHT22;10148;47.694;9.442;2022-08-19T01:00:37;17.20;99.90
19974;DHT22;10148;47.694;9.442;2022-08-19T01:03:15;17.20;99.90
19974;DHT22;10148;47.694;9.442;2022-08-19T01:05:43;17.10;99.90
19974;DHT22;10148;47.694;9.442;2022-08-19T01:08:09;17.20;99.90
19974;DHT22;10148;47.694;9.442;2022-08-19T01:10:42;17.10;99.90
19974;DHT22;10148;47.694;9.442;2022-08-19T01:13:09;17.10;99.90
19974;DHT22;10148;47.694;9.442;2022-08-19T01:15:41;17.10;99.90
19974;DHT22;10148;47.694;9.442;2022-08-19T01:18:11;17.10;99.90
19974;DHT22;10148;47.694;9.442;2022-08-19T01:20:37;17.10;99.90
19974;DHT22;10148;47.694;9.442;2022-08-19T01:23:03;17.10;99.90
19974;DHT22;10148;47.694;9.442;2022-08-19T01:25:43;17.10;99.90
19974;DHT22;10148;47.694;9.442;2022-08-19T01:28:16;17.10;99.90
19974;DHT22;10148;47.694;9.442;2022-08-19T01:30:43;17.20;99.90
19974;DHT22;10148;47.694;9.442;2022-08-19T01:33:09;17.20;99.90
19974;DHT22;10148;47.694;9.442;2022-08-19T01:35:35;17.20;99.90
19974;DHT22;10148;47.694;9.442;2022-08-19T01:38:05;17.10;99.90
19974;DHT22;10148;47.694;9.442;2022-08-19T01:40:36;17.20;99.90
19974;DHT22;10148;47.694;9.442;2022-08-19T01:43:02;17.20;99.90
19974;DHT22;10148;47.694;9.442;2022-08-19T01:45:30;17.10;99.90
19974;DHT22;10148;47.694;9.442;2022-08-19T01:47:57;17.10;99.90
19974;DHT22;10148;47.694;9.442;2022-08-19T01:50:23;17.10;99.90
19974;DHT22;10148;47.694;9.442;2022-08-19T01:52:49;17.10;99.90
19974;DHT22;10148;47.694;9.442;2022-08-19T01:55:20;17.10;99.90
19974;DHT22;10148;47.694;9.442;2022-08-19T01:57:49;17.10;99.90
19974;DHT22;10148;47.694;9.442;2022-08-19T02:00:17;17.10;99.90
19974;DHT22;10148;47.694;9.442;2022-08-19T02:02:43;17.10;99.90
19974;DHT22;10148;47.694;9.442;2022-08-19T02:05:09;17.20;99.90
19974;DHT22;10148;47.694;9.442;2022-08-19T02:07:36;17.20;99.90
19974;DHT22;10148;47.694;9.442;2022-08-19T02:10:07;17.20;99.90
19974;DHT22;10148;47.694;9.442;2022-08-19T02:12:32;17.20;99.90
19974;DHT22;10148;47.694;9.442;2022-08-19T02:14:59;17.20;99.90
19974;DHT22;10148;47.694;9.442;2022-08-19T02:17:26;17.20;99.90
19974;DHT22;10148;47.694;9.442;2022-08-19T02:19:54;17.20;99.90
19974;DHT22;10148;47.694;9.442;2022-08-19T02:22:20;17.20;99.90
19974;DHT22;10148;47.694;9.442;2022-08-19T02:24:45;17.20;99.90
19974;DHT22;10148;47.694;9.442;2022-08-19T02:27:11;17.20;99.90
19974;DHT22;10148;47.694;9.442;2022-08-19T02:29:37;17.20;99.90
19974;DHT22;10148;47.694;9.442;2022-08-19T02:32:03;17.30;99.90
19974;DHT22;10148;47.694;9.442;2022-08-19T02:34:29;17.30;99.90
19974;DHT22;10148;47.694;9.442;2022-08-19T02:36:55;17.30;99.90
19974;DHT22;10148;47.694;9.442;2022-08-19T02:39:20;17.30;99.90
19974;DHT22;10148;47.694;9.442;2022-08-19T02:41:46;17.30;99.90
19974;DHT22;10148;47.694;9.442;2022-08-19T02:44:11;17.30;99.90
19974;DHT22;10148;47.694;9.442;2022-08-19T02:46:37;17.30;99.90
19974;DHT22;10148;47.694;9.442;2022-08-19T02:49:05;17.30;99.90
19974;DHT22;10148;47.694;9.442;2022-08-19T02:51:37;17.40;99.90
19974;DHT22;10148;47.694;9.442;2022-08-19T02:54:03;17.40;99.90
19974;DHT22;10148;47.694;9.442;2022-08-19T02:56:29;17.40;99.90
19974;DHT22;10148;47.694;9.442;2022-08-19T02:58:56;17.40;99.90
19974;DHT22;10148;47.694;9.442;2022-08-19T03:01:32;17.40;99.90
19974;DHT22;10148;47.694;9.442;2022-08-19T03:03:59;17.40;99.90
19974;DHT22;10148;47.694;9.442;2022-08-19T03:06:26;17.40;99.90
19974;DHT22;10148;47.694;9.442;2022-08-19T03:08:52;17.40;99.90
19974;DHT22;10148;47.694;9.442;2022-08-19T03:11:22;17.40;99.90
19974;DHT22;10148;47.694;9.442;2022-08-19T03:13:48;17.40;99.90
19974;DHT22;10148;47.694;9.442;2022-08-19T03:16:15;17.50;99.90
19974;DHT22;10148;47.694;9.442;2022-08-19T03:18:41;17.50;99.90
19974;DHT22;10148;47.694;9.442;2022-08-19T03:21:07;17.50;99.90
19974;DHT22;10148;47.694;9.442;2022-08-19T03:23:34;17.50;99.90
19974;DHT22;10148;47.694;9.442;2022-08-19T03:26:03;17.60;99.90
19974;DHT22;10148;47.694;9.442;2022-08-19T03:28:30;17.60;99.90
19974;DHT22;10148;47.694;9.442;2022-08-19T03:31:01;17.50;99.90
19974;DHT22;10148;47.694;9.442;2022-08-19T03:33:28;17.60;99.90
19974;DHT22;10148;47.694;9.442;2022-08-19T03:36:09;17.60;99.90
19974;DHT22;10148;47.694;9.442;2022-08-19T03:38:38;17.60;99.90
19974;DHT22;10148;47.694;9.442;2022-08-19T03:41:10;17.60;99.90
19974;DHT22;10148;47.694;9.442;2022-08-19T03:43:38;17.60;99.90
19974;DHT22;10148;47.694;9.442;2022-08-19T03:46:09;17.60;99.90
19974;DHT22;10148;47.694;9.442;2022-08-19T03:48:35;17.60;99.90
19974;DHT22;10148;47.694;9.442;2022-08-19T03:51:02;17.60;99.90
19974;DHT22;10148;47.694;9.442;2022-08-19T03:53:29;17.60;99.90
19974;DHT22;10148;47.694;9.442;2022-08-19T03:55:55;17.60;99.90
19974;DHT22;10148;47.694;9.442;2022-08-19T03:58:22;17.60;99.90
19974;DHT22;10148;47.694;9.442;2022-08-19T04:00:48;17.70;99.90
19974;DHT22;10148;47.694;9.442;2022-08-19T04:03:14;17.70;99.90
19974;DHT22;10148;47.694;9.442;2022-08-19T04:05:39;17.70;99.90
19974;DHT22;10148;47.694;9.442;2022-08-19T04:08:05;17.60;99.90
19974;DHT22;10148;47.694;9.442;2022-08-19T04:10:35;17.60;99.90
19974;DHT22;10148;47.694;9.442;2022-08-19T04:13:03;17.60;99.90
19974;DHT22;10148;47.694;9.442;2022-08-19T04:15:29;17.60;99.90
19974;DHT22;10148;47.694;9.442;2022-08-19T04:17:56;17.70;99.90
19974;DHT22;10148;47.694;9.442;2022-08-19T04:20:21;17.70;99.90
19974;DHT22;10148;47.694;9.442;2022-08-19T04:22:47;17.60;99.90
19974;DHT22;10148;47.694;9.442;2022-08-19T04:25:12;17.60;99.90
19974;DHT22;10148;47.694;9.442;2022-08-19T04:27:38;17.60;99.90
19974;DHT22;10148;47.694;9.442;2022-08-19T04:30:04;17.60;99.90
19974;DHT22;10148;47.694;9.442;2022-08-19T04:32:29;17.60;99.90
19974;DHT22;10148;47.694;9.442;2022-08-19T04:34:57;17.60;99.90
19974;DHT22;10148;47.694;9.442;2022-08-19T04:37:24;17.60;99.90
19974;DHT22;10148;47.694;9.442;2022-08-19T04:39:52;17.60;99.90
19974;DHT22;10148;47.694;9.442;2022-08-19T04:42:53;17.60;99.90
19974;DHT22;10148;47.694;9.442;2022-08-19T04:45:19;17.60;99.90
19974;DHT22;10148;47.694;9.442;2022-08-19T04:47:44;17.60;99.90
19974;DHT22;10148;47.694;9.442;2022-08-19T04:50:11;17.60;99.90
19974;DHT22;10148;47.694;9.442;2022-08-19T04:52:38;17.60;99.90
19974;DHT22;10148;47.694;9.442;2022-08-19T04:55:08;17.60;99.90
19974;DHT22;10148;47.694;9.442;2022-08-19T04:57:34;17.60;99.90
19974;DHT22;10148;47.694;9.442;2022-08-19T04:59:59;17.50;99.90
19974;DHT22;10148;47.694;9.442;2022-08-19T05:02:25;17.60;99.90
19974;DHT22;10148;47.694;9.442;2022-08-19T05:04:56;17.50;99.90
19974;DHT22;10148;47.694;9.442;2022-08-19T05:07:22;17.60;99.90
19974;DHT22;10148;47.694;9.442;2022-08-19T05:09:48;17.60;99.90
19974;DHT22;10148;47.694;9.442;2022-08-19T05:12:13;17.50;99.90
19974;DHT22;10148;47.694;9.442;2022-08-19T05:14:39;17.60;99.90
19974;DHT22;10148;47.694;9.442;2022-08-19T05:17:04;17.60;99.90
19974;DHT22;10148;47.694;9.442;2022-08-19T05:19:30;17.50;99.90
19974;DHT22;10148;47.694;9.442;2022-08-19T05:22:14;17.60;99.90
19974;DHT22;10148;47.694;9.442;2022-08-19T05:24:58;17.50;99.90
19974;DHT22;10148;47.694;9.442;2022-08-19T05:27:24;17.50;99.90
19974;DHT22;10148;47.694;9.442;2022-08-19T05:29:49;17.50;99.90
19974;DHT22;10148;47.694;9.442;2022-08-19T05:32:15;17.60;99.90
19974;DHT22;10148;47.694;9.442;2022-08-19T05:34:41;17.60;99.90
19974;DHT22;10148;47.694;9.442;2022-08-19T05:37:07;17.60;99.90
19974;DHT22;10148;47.694;9.442;2022-08-19T05:39:35;17.60;99.90
19974;DHT22;10148;47.694;9.442;2022-08-19T05:42:04;17.60;99.90
19974;DHT22;10148;47.694;9.442;2022-08-19T05:44:33;17.60;99.90
19974;DHT22;10148;47.694;9.442;2022-08-19T05:47:00;17.70;99.90
19974;DHT22;10148;47.694;9.442;2022-08-19T05:49:28;17.70;99.90
19974;DHT22;10148;47.694;9.442;2022-08-19T05:51:54;17.70;99.90
19974;DHT22;10148;47.694;9.442;2022-08-19T05:54:20;17.70;99.90
19974;DHT22;10148;47.694;9.442;2022-08-19T05:56:49;17.70;99.90
19974;DHT22;10148;47.694;9.442;2022-08-19T05:59:16;17.70;99.90
19974;DHT22;10148;47.694;9.442;2022-08-19T06:01:44;17.80;99.90
19974;DHT22;10148;47.694;9.442;2022-08-19T06:04:12;17.80;99.90
19974;DHT22;10148;47.694;9.442;2022-08-19T06:06:39;17.70;99.90
19974;DHT22;10148;47.694;9.442;2022-08-19T06:09:06;17.70;99.90
19974;DHT22;10148;47.694;9.442;2022-08-19T06:11:39;17.70;99.90
19974;DHT22;10148;47.694;9.442;2022-08-19T06:14:11;17.70;99.90
19974;DHT22;10148;47.694;9.442;2022-08-19T06:16:39;17.70;99.90
19974;DHT22;10148;47.694;9.442;2022-08-19T06:19:09;17.80;99.90
19974;DHT22;10148;47.694;9.442;2022-08-19T06:21:36;17.70;99.90
19974;DHT22;10148;47.694;9.442;2022-08-19T06:24:04;17.70;99.90
19974;DHT22;10148;47.694;9.442;2022-08-19T06:26:30;17.70;99.90
19974;DHT22;10148;47.694;9.442;2022-08-19T06:28:55;17.70;99.90
19974;DHT22;10148;47.694;9.442;2022-08-19T06:31:24;17.70;99.90
19974;DHT22;10148;47.694;9.442;2022-08-19T06:33:50;17.70;99.90
19974;DHT22;10148;47.694;9.442;2022-08-19T06:36:21;17.70;99.90
19974;DHT22;10148;47.694;9.442;2022-08-19T06:38:49;17.60;99.90
19974;DHT22;10148;47.694;9.442;2022-08-19T06:41:15;17.60;99.90
19974;DHT22;10148;47.694;9.442;2022-08-19T06:43:40;17.60;99.90
19974;DHT22;10148;47.694;9.442;2022-08-19T06:46:13;17.60;99.90
19974;DHT22;10148;47.694;9.442;2022-08-19T06:48:39;17.60;99.90
19974;DHT22;10148;47.694;9.442;2022-08-19T06:51:05;17.60;99.90
19974;DHT22;10148;47.694;9.442;2022-08-19T06:53:32;17.60;99.90
19974;DHT22;10148;47.694;9.442;2022-08-19T06:55:57;17.60;99.90
19974;DHT22;10148;47.694;9.442;2022-08-19T06:58:28;17.60;99.90
19974;DHT22;10148;47.694;9.442;2022-08-19T07:00:58;17.60;99.90
19974;DHT22;10148;47.694;9.442;2022-08-19T07:03:28;17.50;99.90
19974;DHT22;10148;47.694;9.442;2022-08-19T07:05:54;17.60;99.90
19974;DHT22;10148;47.694;9.442;2022-08-19T07:08:20;17.50;99.90
19974;DHT22;10148;47.694;9.442;2022-08-19T07:10:45;17.50;99.90
19974;DHT22;10148;47.694;9.442;2022-08-19T07:13:11;17.50;99.90
19974;DHT22;10148;47.694;9.442;2022-08-19T07:15:37;17.40;99.90
19974;DHT22;10148;47.694;9.442;2022-08-19T07:18:03;17.50;99.90
19974;DHT22;10148;47.694;9.442;2022-08-19T07:20:28;17.50;99.90
19974;DHT22;10148;47.694;9.442;2022-08-19T07:22:54;17.40;99.90
19974;DHT22;10148;47.694;9.442;2022-08-19T07:25:19;17.50;99.90
19974;DHT22;10148;47.694;9.442;2022-08-19T07:27:48;17.40;99.90
19974;DHT22;10148;47.694;9.442;2022-08-19T07:30:13;17.50;99.90
19974;DHT22;10148;47.694;9.442;2022-08-19T07:32:40;17.50;99.90
19974;DHT22;10148;47.694;9.442;2022-08-19T07:35:06;17.50;99.90
19974;DHT22;10148;47.694;9.442;2022-08-19T07:37:32;17.50;99.90
19974;DHT22;10148;47.694;9.442;2022-08-19T07:39:59;17.50;99.90
19974;DHT22;10148;47.694;9.442;2022-08-19T07:42:25;17.50;99.90
19974;DHT22;10148;47.694;9.442;2022-08-19T07:44:51;17.60;99.90
19974;DHT22;10148;47.694;9.442;2022-08-19T07:47:17;17.50;99.90
19974;DHT22;10148;47.694;9.442;2022-08-19T07:49:43;17.60;99.90
19974;DHT22;10148;47.694;9.442;2022-08-19T07:52:09;17.60;99.90
19974;DHT22;10148;47.694;9.442;2022-08-19T07:54:37;17.60;99.90
19974;DHT22;10148;47.694;9.442;2022-08-19T07:57:03;17.60;99.90
19974;DHT22;10148;47.694;9.442;2022-08-19T07:59:29;17.60;99.90
19974;DHT22;10148;47.694;9.442;2022-08-19T08:01:55;17.60;99.90
19974;DHT22;10148;47.694;9.442;2022-08-19T08:04:21;17.70;99.90
19974;DHT22;10148;47.694;9.442;2022-08-19T08:07:06;17.60;99.90
19974;DHT22;10148;47.694;9.442;2022-08-19T08:09:52;17.60;99.90
19974;DHT22;10148;47.694;9.442;2022-08-19T08:12:24;17.70;99.90
19974;DHT22;10148;47.694;9.442;2022-08-19T08:14:54;17.60;99.90
19974;DHT22;10148;47.694;9.442;2022-08-19T08:17:24;17.60;99.90
19974;DHT22;10148;47.694;9.442;2022-08-19T08:19:50;17.60;99.90
19974;DHT22;10148;47.694;9.442;2022-08-19T08:22:19;17.70;99.90
19974;DHT22;10148;47.694;9.442;2022-08-19T08:25:06;17.60;99.90
19974;DHT22;10148;47.694;9.442;2022-08-19T08:27:35;17.70;99.90
19974;DHT22;10148;47.694;9.442;2022-08-19T08:30:03;17.70;99.90
19974;DHT22;10148;47.694;9.442;2022-08-19T08:32:30;17.70;99.90
19974;DHT22;10148;47.694;9.442;2022-08-19T08:34:55;17.70;99.90
19974;DHT22;10148;47.694;9.442;2022-08-19T08:37:21;17.70;99.90
19974;DHT22;10148;47.694;9.442;2022-08-19T08:39:47;17.70;99.90
19974;DHT22;10148;47.694;9.442;2022-08-19T08:42:18;17.70;99.90
19974;DHT22;10148;47.694;9.442;2022-08-19T08:45:10;17.70;99.90
19974;DHT22;10148;47.694;9.442;2022-08-19T08:47:42;17.70;99.90
19974;DHT22;10148;47.694;9.442;2022-08-19T08:50:16;17.60;99.90
19974;DHT22;10148;47.694;9.442;2022-08-19T08:52:46;17.60;99.90
19974;DHT22;10148;47.694;9.442;2022-08-19T08:55:16;17.60;99.90
19974;DHT22;10148;47.694;9.442;2022-08-19T09:00:39;17.60;99.90
19974;DHT22;10148;47.694;9.442;2022-08-19T09:03:26;17.60;99.90
19974;DHT22;10148;47.694;9.442;2022-08-19T09:08:36;17.60;99.90
19974;DHT22;10148;47.694;9.442;2022-08-19T09:11:08;17.60;99.90
19974;DHT22;10148;47.694;9.442;2022-08-19T09:16:11;17.60;99.90
19974;DHT22;10148;47.694;9.442;2022-08-19T09:18:46;17.70;99.90
19974;DHT22;10148;47.694;9.442;2022-08-19T09:21:15;17.70;99.90
19974;DHT22;10148;47.694;9.442;2022-08-19T09:23:41;17.70;99.90
19974;DHT22;10148;47.694;9.442;2022-08-19T09:26:13;17.70;99.90
19974;DHT22;10148;47.694;9.442;2022-08-19T09:28:40;17.60;99.90
19974;DHT22;10148;47.694;9.442;2022-08-19T09:31:17;17.60;99.90
19974;DHT22;10148;47.694;9.442;2022-08-19T09:33:44;17.60;99.90
19974;DHT22;10148;47.694;9.442;2022-08-19T09:36:12;17.50;99.90
19974;DHT22;10148;47.694;9.442;2022-08-19T09:38:38;17.50;99.90
19974;DHT22;10148;47.694;9.442;2022-08-19T09:41:10;17.50;99.90
19974;DHT22;10148;47.694;9.442;2022-08-19T09:43:37;17.40;99.90
19974;DHT22;10148;47.694;9.442;2022-08-19T09:46:04;17.40;99.90
19974;DHT22;10148;47.694;9.442;2022-08-19T09:48:41;17.40;99.90
19974;DHT22;10148;47.694;9.442;2022-08-19T09:51:09;17.40;99.90
19974;DHT22;10148;47.694;9.442;2022-08-19T09:53:36;17.40;99.90
19974;DHT22;10148;47.694;9.442;2022-08-19T09:56:03;17.50;99.90
19974;DHT22;10148;47.694;9.442;2022-08-19T09:58:32;17.50;99.90
19974;DHT22;10148;47.694;9.442;2022-08-19T10:00:59;17.50;99.90
19974;DHT22;10148;47.694;9.442;2022-08-19T10:03:25;17.50;99.90
19974;DHT22;10148;47.694;9.442;2022-08-19T10:05:52;17.50;99.90
19974;DHT22;10148;47.694;9.442;2022-08-19T10:08:24;17.50;99.90
19974;DHT22;10148;47.694;9.442;2022-08-19T10:10:51;17.50;99.90
19974;DHT22;10148;47.694;9.442;2022-08-19T10:13:19;17.50;99.90
19974;DHT22;10148;47.694;9.442;2022-08-19T10:15:48;17.50;99.90
19974;DHT22;10148;47.694;9.442;2022-08-19T10:18:16;17.50;99.90
19974;DHT22;10148;47.694;9.442;2022-08-19T10:20:49;17.40;99.90
19974;DHT22;10148;47.694;9.442;2022-08-19T10:23:16;17.40;99.90
19974;DHT22;10148;47.694;9.442;2022-08-19T10:25:42;17.40;99.90
19974;DHT22;10148;47.694;9.442;2022-08-19T10:28:08;17.30;99.90
19974;DHT22;10148;47.694;9.442;2022-08-19T10:30:38;17.30;99.90
19974;DHT22;10148;47.694;9.442;2022-08-19T10:33:05;17.40;99.90
19974;DHT22;10148;47.694;9.442;2022-08-19T10:35:30;17.40;99.90
19974;DHT22;10148;47.694;9.442;2022-08-19T10:37:56;17.40;99.90
19974;DHT22;10148;47.694;9.442;2022-08-19T10:40:27;17.40;99.90
19974;DHT22;10148;47.694;9.442;2022-08-19T10:42:54;17.40;99.90
19974;DHT22;10148;47.694;9.442;2022-08-19T10:45:21;17.40;99.90
19974;DHT22;10148;47.694;9.442;2022-08-19T10:47:54;17.40;99.90
19974;DHT22;10148;47.694;9.442;2022-08-19T10:50:20;17.40;99.90
19974;DHT22;10148;47.694;9.442;2022-08-19T10:53:06;17.30;99.90
19974;DHT22;10148;47.694;9.442;2022-08-19T10:55:34;17.30;99.90
19974;DHT22;10148;47.694;9.442;2022-08-19T10:58:19;17.30;99.90
19974;DHT22;10148;47.694;9.442;2022-08-19T11:00:58;17.30;99.90
19974;DHT22;10148;47.694;9.442;2022-08-19T11:03:25;17.30;99.90
19974;DHT22;10148;47.694;9.442;2022-08-19T11:06:00;17.30;99.90
19974;DHT22;10148;47.694;9.442;2022-08-19T11:08:26;17.30;99.90
19974;DHT22;10148;47.694;9.442;2022-08-19T11:10:53;17.30;99.90
19974;DHT22;10148;47.694;9.442;2022-08-19T11:13:29;17.30;99.90
19974;DHT22;10148;47.694;9.442;2022-08-19T11:16:09;17.30;99.90
19974;DHT22;10148;47.694;9.442;2022-08-19T11:18:37;17.30;99.90
19974;DHT22;10148;47.694;9.442;2022-08-19T11:21:14;17.30;99.90
19974;DHT22;10148;47.694;9.442;2022-08-19T11:23:40;17.30;99.90
19974;DHT22;10148;47.694;9.442;2022-08-19T11:26:06;17.30;99.90
19974;DHT22;10148;47.694;9.442;2022-08-19T11:28:32;17.30;99.90
19974;DHT22;10148;47.694;9.442;2022-08-19T11:30:57;17.30;99.90
19974;DHT22;10148;47.694;9.442;2022-08-19T11:33:23;17.40;99.90
19974;DHT22;10148;47.694;9.442;2022-08-19T11:35:51;17.30;99.90
19974;DHT22;10148;47.694;9.442;2022-08-19T11:38:17;17.30;99.90
19974;DHT22;10148;47.694;9.442;2022-08-19T11:40:43;17.30;99.90
19974;DHT22;10148;47.694;9.442;2022-08-19T11:43:09;17.30;99.90
19974;DHT22;10148;47.694;9.442;2022-08-19T11:45:35;17.30;99.90
19974;DHT22;10148;47.694;9.442;2022-08-19T11:48:01;17.30;99.90
19974;DHT22;10148;47.694;9.442;2022-08-19T11:50:27;17.30;99.90
19974;DHT22;10148;47.694;9.442;2022-08-19T11:52:56;17.30;99.90
19974;DHT22;10148;47.694;9.442;2022-08-19T11:55:22;17.40;99.90
19974;DHT22;10148;47.694;9.442;2022-08-19T11:57:47;17.30;99.90
19974;DHT22;10148;47.694;9.442;2022-08-19T12:00:13;17.30;99.90
19974;DHT22;10148;47.694;9.442;2022-08-19T12:02:39;17.30;99.90
19974;DHT22;10148;47.694;9.442;2022-08-19T12:05:06;17.40;99.90
19974;DHT22;10148;47.694;9.442;2022-08-19T12:07:32;17.40;99.90
19974;DHT22;10148;47.694;9.442;2022-08-19T12:09:58;17.30;99.90
19974;DHT22;10148;47.694;9.442;2022-08-19T12:12:24;17.40;99.90
19974;DHT22;10148;47.694;9.442;2022-08-19T12:14:50;17.40;99.90
19974;DHT22;10148;47.694;9.442;2022-08-19T12:17:25;17.40;99.90
19974;DHT22;10148;47.694;9.442;2022-08-19T12:19:51;17.40;99.90
19974;DHT22;10148;47.694;9.442;2022-08-19T12:22:16;17.50;99.90
19974;DHT22;10148;47.694;9.442;2022-08-19T12:24:42;17.50;99.90
19974;DHT22;10148;47.694;9.442;2022-08-19T12:27:07;17.50;99.90
19974;DHT22;10148;47.694;9.442;2022-08-19T12:29:33;17.50;99.90
19974;DHT22;10148;47.694;9.442;2022-08-19T12:31:59;17.60;99.90
19974;DHT22;10148;47.694;9.442;2022-08-19T12:34:29;17.60;99.90
19974;DHT22;10148;47.694;9.442;2022-08-19T12:36:57;17.60;99.90
19974;DHT22;10148;47.694;9.442;2022-08-19T12:39:23;17.60;99.90
19974;DHT22;10148;47.694;9.442;2022-08-19T12:41:48;17.60;99.90
19974;DHT22;10148;47.694;9.442;2022-08-19T12:44:14;17.60;99.90
19974;DHT22;10148;47.694;9.442;2022-08-19T12:46:40;17.70;99.90
19974;DHT22;10148;47.694;9.442;2022-08-19T12:49:05;17.80;99.90
19974;DHT22;10148;47.694;9.442;2022-08-19T12:51:31;17.80;99.90
19974;DHT22;10148;47.694;9.442;2022-08-19T12:53:57;17.80;99.90
19974;DHT22;10148;47.694;9.442;2022-08-19T12:56:22;17.80;99.90
19974;DHT22;10148;47.694;9.442;2022-08-19T12:58:48;17.70;99.90
19974;DHT22;10148;47.694;9.442;2022-08-19T13:01:15;17.70;99.90
19974;DHT22;10148;47.694;9.442;2022-08-19T13:03:42;17.80;99.90
19974;DHT22;10148;47.694;9.442;2022-08-19T13:06:09;17.80;99.90
19974;DHT22;10148;47.694;9.442;2022-08-19T13:08:35;17.80;99.90
19974;DHT22;10148;47.694;9.442;2022-08-19T13:11:11;17.70;99.90
19974;DHT22;10148;47.694;9.442;2022-08-19T13:13:39;17.80;99.90
19974;DHT22;10148;47.694;9.442;2022-08-19T13:16:06;17.80;99.90
19974;DHT22;10148;47.694;9.442;2022-08-19T13:18:32;17.80;99.90
19974;DHT22;10148;47.694;9.442;2022-08-19T13:21:05;17.80;99.90
19974;DHT22;10148;47.694;9.442;2022-08-19T13:23:31;17.90;99.90
19974;DHT22;10148;47.694;9.442;2022-08-19T13:26:00;18.00;99.90
19974;DHT22;10148;47.694;9.442;2022-08-19T13:28:26;18.00;99.90
19974;DHT22;10148;47.694;9.442;2022-08-19T13:30:52;18.00;99.90
19974;DHT22;10148;47.694;9.442;2022-08-19T13:33:36;18.10;99.90
19974;DHT22;10148;47.694;9.442;2022-08-19T13:36:02;18.00;99.90
19974;DHT22;10148;47.694;9.442;2022-08-19T13:38:28;18.00;99.90
19974;DHT22;10148;47.694;9.442;2022-08-19T13:40:54;18.00;99.90
19974;DHT22;10148;47.694;9.442;2022-08-19T13:43:22;18.00;99.90
19974;DHT22;10148;47.694;9.442;2022-08-19T13:45:52;18.00;99.90
19974;DHT22;10148;47.694;9.442;2022-08-19T13:48:20;18.00;99.90
19974;DHT22;10148;47.694;9.442;2022-08-19T13:50:46;18.10;99.90
19974;DHT22;10148;47.694;9.442;2022-08-19T13:53:13;18.10;99.90
19974;DHT22;10148;47.694;9.442;2022-08-19T13:55:40;18.10;99.90
19974;DHT22;10148;47.694;9.442;2022-08-19T13:58:06;18.10;99.90
19974;DHT22;10148;47.694;9.442;2022-08-19T14:00:39;18.10;99.90
19974;DHT22;10148;47.694;9.442;2022-08-19T14:03:05;18.10;99.90
19974;DHT22;10148;47.694;9.442;2022-08-19T14:05:31;18.10;99.90
19974;DHT22;10148;47.694;9.442;2022-08-19T14:07:57;18.00;99.90
19974;DHT22;10148;47.694;9.442;2022-08-19T14:10:24;18.10;99.90
19974;DHT22;10148;47.694;9.442;2022-08-19T14:12:53;18.00;99.90
19974;DHT22;10148;47.694;9.442;2022-08-19T14:15:20;18.10;99.90
19974;DHT22;10148;47.694;9.442;2022-08-19T14:17:46;18.10;99.90
19974;DHT22;10148;47.694;9.442;2022-08-19T14:20:13;18.10;99.90
19974;DHT22;10148;47.694;9.442;2022-08-19T14:22:41;18.00;99.90
19974;DHT22;10148;47.694;9.442;2022-08-19T14:25:09;18.00;99.90
19974;DHT22;10148;47.694;9.442;2022-08-19T14:27:37;18.00;99.90
19974;DHT22;10148;47.694;9.442;2022-08-19T14:30:05;18.10;99.90
19974;DHT22;10148;47.694;9.442;2022-08-19T14:32:32;18.10;99.90
19974;DHT22;10148;47.694;9.442;2022-08-19T14:34:58;18.00;99.90
19974;DHT22;10148;47.694;9.442;2022-08-19T14:37:24;18.00;99.90
19974;DHT22;10148;47.694;9.442;2022-08-19T14:39:49;18.00;99.90
19974;DHT22;10148;47.694;9.442;2022-08-19T14:42:15;18.00;99.90
19974;DHT22;10148;47.694;9.442;2022-08-19T14:44:41;18.00;99.90
19974;DHT22;10148;47.694;9.442;2022-08-19T14:47:07;17.90;99.90
19974;DHT22;10148;47.694;9.442;2022-08-19T14:49:33;17.90;99.90
19974;DHT22;10148;47.694;9.442;2022-08-19T14:51:59;17.90;99.90
19974;DHT22;10148;47.694;9.442;2022-08-19T14:54:24;17.90;99.90
19974;DHT22;10148;47.694;9.442;2022-08-19T14:56:50;18.00;99.90
19974;DHT22;10148;47.694;9.442;2022-08-19T14:59:16;18.00;99.90
19974;DHT22;10148;47.694;9.442;2022-08-19T15:01:42;17.90;99.90
19974;DHT22;10148;47.694;9.442;2022-08-19T15:04:08;18.00;99.90
19974;DHT22;10148;47.694;9.442;2022-08-19T15:06:33;17.90;99.90
19974;DHT22;10148;47.694;9.442;2022-08-19T15:08:59;17.90;99.90
19974;DHT22;10148;47.694;9.442;2022-08-19T15:11:27;17.90;99.90
19974;DHT22;10148;47.694;9.442;2022-08-19T15:13:54;18.00;99.90
19974;DHT22;10148;47.694;9.442;2022-08-19T15:16:21;17.90;99.90
19974;DHT22;10148;47.694;9.442;2022-08-19T15:18:50;18.00;99.90
19974;DHT22;10148;47.694;9.442;2022-08-19T15:21:15;17.90;99.90
19974;DHT22;10148;47.694;9.442;2022-08-19T15:23:47;17.90;99.90
19974;DHT22;10148;47.694;9.442;2022-08-19T15:26:14;17.90;99.90
19974;DHT22;10148;47.694;9.442;2022-08-19T15:28:40;17.90;99.90
19974;DHT22;10148;47.694;9.442;2022-08-19T15:31:06;17.90;99.90
19974;DHT22;10148;47.694;9.442;2022-08-19T15:33:33;17.80;99.90
19974;DHT22;10148;47.694;9.442;2022-08-19T15:36:03;17.90;99.90
19974;DHT22;10148;47.694;9.442;2022-08-19T15:38:30;17.80;99.90
19974;DHT22;10148;47.694;9.442;2022-08-19T15:40:58;17.90;99.90
19974;DHT22;10148;47.694;9.442;2022-08-19T15:43:44;17.80;99.90